Time;durP1;ratioP1;P1;durP2;ratioP2;P2;SDS_P1;SDS_P2;PMS_P1;PMS_P2;Temp;Humidity;BMP_temperature;BMP_pressure;BME280_temperature;BME280_humidity;BME280_pressure;Samples;Min_cycle;Max_cycle;Signal;HPM_P1;HPM_P2
2023/05/21 00:09:08;;;;;;;4.53;3.00;;;;;;;;;;20991064;28;20550;-68
2023/05/21 00:19:09;;;;;;;4.03;3.23;;;;;;;;;;20990030;28;20207;-69
2023/05/21 00:29:11;;;;;;;4.77;3.07;;;;;;;;;;20987882;28;20763;-69
2023/05/21 00:39:13;;;;;;;4.57;3.33;;;;;;;;;;20992150;28;20214;-69
2023/05/21 00:49:15;;;;;;;3.80;2.93;;;19.00;99.90;;;;;;20991287;28;20632;-70
2023/05/21 00:59:17;;;;;;;3.90;2.90;;;;;;;;;;20984680;28;20685;-71
2023/05/21 01:09:19;;;;;;;4.83;2.90;;;18.90;99.90;;;;;;20983961;28;20263;-70
2023/05/21 01:19:22;;;;;;;5.73;3.10;;;18.90;99.90;;;;;;20985646;28;20547;-70
2023/05/21 01:29:24;;;;;;;6.07;2.90;;;;;;;;;;20984785;28;20310;-71
2023/05/21 01:39:37;;;;;;;4.53;3.23;;;;;;;;;;20984956;28;20207;-70
2023/05/21 01:49:39;;;;;;;4.37;3.07;;;;;;;;;;20983128;28;20316;-70
2023/05/21 01:59:43;;;;;;;4.07;2.73;;;;;;;;;;20994973;28;20218;-70
2023/05/21 02:09:45;;;;;;;5.80;3.03;;;;;;;;;;20999578;28;20215;-70
2023/05/21 02:19:46;;;;;;;4.80;3.50;;;;;;;;;;21000289;28;20202;-70
2023/05/21 02:29:48;;;;;;;4.50;3.40;;;;;;;;;;20966514;22;20238;-82
2023/05/21 02:39:50;;;;;;;4.37;3.20;;;;;;;;;;20818415;28;20220;-82
2023/05/21 02:49:52;;;;;;;4.90;3.00;;;18.50;99.90;;;;;;20863699;28;20643;-82
2023/05/21 02:59:54;;;;;;;4.93;3.47;;;;;;;;;;20800790;28;20215;-82
2023/05/21 03:09:56;;;;;;;6.97;3.40;;;;;;;;;;20803144;28;20603;-82
2023/05/21 03:19:57;;;;;;;4.13;2.97;;;;;;;;;;20822984;28;20260;-83
2023/05/21 03:29:59;;;;;;;4.10;2.77;;;;;;;;;;20783268;28;20227;-82
2023/05/21 03:40:03;;;;;;;4.20;3.10;;;;;;;;;;20798576;28;20215;-83
2023/05/21 03:50:05;;;;;;;4.30;3.27;;;;;;;;;;20872140;28;20267;-83
2023/05/21 04:00:08;;;;;;;4.40;3.37;;;;;;;;;;20947485;28;20231;-83
2023/05/21 04:10:17;;;;;;;6.60;3.40;;;;;;;;;;20943167;28;20230;-82
2023/05/21 04:20:19;;;;;;;4.27;3.07;;;;;;;;;;20897150;28;20206;-82
2023/05/21 04:30:22;;;;;;;4.90;3.20;;;;;;;;;;20895516;28;20257;-82
2023/05/21 04:40:25;;;;;;;6.57;3.10;;;;;;;;;;20862517;28;20214;-82
2023/05/21 04:50:32;;;;;;;4.37;3.00;;;;;;;;;;20921347;28;20690;-82
2023/05/21 05:00:36;;;;;;;7.27;3.10;;;;;;;;;;20926471;28;20205;-82
2023/05/21 05:10:38;;;;;;;4.90;2.93;;;;;;;;;;20976246;28;20271;-83
2023/05/21 05:20:40;;;;;;;4.70;3.27;;;;;;;;;;20927792;28;20248;-82
2023/05/21 05:30:41;;;;;;;5.43;3.17;;;;;;;;;;20959693;28;20605;-82
2023/05/21 05:40:56;;;;;;;7.00;3.50;;;;;;;;;;20962640;28;20284;-82
2023/05/21 05:50:58;;;;;;;5.30;3.33;;;;;;;;;;20976414;28;20229;-82
2023/05/21 06:01:01;;;;;;;4.30;3.50;;;;;;;;;;20982156;28;20297;-82
2023/05/21 06:11:03;;;;;;;5.37;3.07;;;;;;;;;;20925256;28;20241;-82
2023/05/21 06:21:05;;;;;;;4.53;2.90;;;;;;;;;;20918091;28;20227;-82
2023/05/21 06:31:07;;;;;;;4.50;2.90;;;;;;;;;;20988313;28;20287;-83
2023/05/21 06:41:12;;;;;;;7.00;3.03;;;;;;;;;;20962101;28;20226;-84
2023/05/21 06:51:34;;;;;;;4.23;2.97;;;;;;;;;;20922713;28;20631;-83
2023/05/21 07:01:41;;;;;;;4.20;3.13;;;;;;;;;;20883531;28;20208;-82
2023/05/21 07:11:43;;;;;;;5.57;3.10;;;;;;;;;;20896682;28;20219;-83
2023/05/21 07:21:45;;;;;;;3.53;2.77;;;20.40;99.90;;;;;;20901544;28;20273;-83
2023/05/21 07:31:47;;;;;;;4.03;3.00;;;;;;;;;;20922946;28;20719;-83
2023/05/21 07:41:50;;;;;;;4.37;2.77;;;;;;;;;;20885133;28;20223;-83
2023/05/21 07:51:52;;;;;;;4.70;3.10;;;;;;;;;;20899952;28;20243;-83
2023/05/21 08:01:54;;;;;;;5.93;2.80;;;21.90;99.90;;;;;;20900587;28;20235;-82
2023/05/21 08:11:57;;;;;;;3.13;2.43;;;;;;;;;;20920711;28;20583;-81
2023/05/21 08:21:59;;;;;;;3.00;2.37;;;;;;;;;;20982303;28;20330;-81
2023/05/21 08:32:01;;;;;;;3.40;2.80;;;21.80;99.90;;;;;;20961940;28;20234;-81
2023/05/21 08:42:27;;;;;;;4.27;2.93;;;21.70;99.90;;;;;;20945782;28;20628;-81
2023/05/21 08:52:31;;;;;;;4.03;2.67;;;;;;;;;;20960757;28;20628;-81
2023/05/21 09:02:33;;;;;;;4.40;3.10;;;;;;;;;;20941016;28;20234;-81
2023/05/21 09:12:37;;;;;;;3.65;2.78;;;;;;;;;;20958541;28;20270;-81
2023/05/21 09:22:39;;;;;;;3.22;2.63;;;23.40;99.90;;;;;;20971223;28;20484;-81
2023/05/21 09:32:43;;;;;;;4.30;2.83;;;23.60;99.90;;;;;;20996093;28;20210;-81
2023/05/21 09:42:47;;;;;;;3.50;2.60;;;;;;;;;;20953396;28;20234;-81
2023/05/21 09:52:51;;;;;;;4.43;3.17;;;24.10;99.90;;;;;;20969712;28;20259;-82
2023/05/21 10:03:00;;;;;;;3.47;2.83;;;24.50;99.90;;;;;;20953170;28;20268;-81
2023/05/21 10:13:07;;;;;;;3.55;2.83;;;24.80;99.90;;;;;;20938720;28;20210;-82
2023/05/21 10:23:09;;;;;;;3.40;2.70;;;25.00;99.90;;;;;;20970590;28;20230;-81
2023/05/21 10:33:17;;;;;;;3.42;2.67;;;;;;;;;;20987355;28;20462;-81
2023/05/21 10:43:31;;;;;;;3.70;2.70;;;;;;;;;;20954107;28;20226;-82
2023/05/21 10:53:51;;;;;;;3.10;2.80;;;;;;;;;;20951414;28;20202;-82
2023/05/21 11:03:54;;;;;;;3.88;2.65;;;25.00;99.90;;;;;;20995831;28;20223;-82
2023/05/21 11:13:56;;;;;;;3.83;2.75;;;;;;;;;;20961366;28;20269;-82
2023/05/21 11:24:05;;;;;;;3.40;2.55;;;25.10;99.90;;;;;;20983676;28;20231;-82
2023/05/21 11:34:13;;;;;;;3.40;2.65;;;;;;;;;;20982182;28;20236;-82
2023/05/21 11:44:15;;;;;;;3.40;2.55;;;;;;;;;;20949619;28;20286;-83
2023/05/21 11:54:18;;;;;;;3.25;2.45;;;25.40;99.90;;;;;;20971897;28;20624;-82
2023/05/21 12:04:20;;;;;;;3.58;2.50;;;;;;;;;;20929097;28;20590;-82
2023/05/21 12:14:22;;;;;;;2.97;2.25;;;;;;;;;;20961125;28;20236;-82
2023/05/21 12:24:23;;;;;;;3.10;2.25;;;;;;;;;;20980702;28;20301;-83
2023/05/21 12:34:37;;;;;;;2.80;2.22;;;;;;;;;;20962347;28;20217;-83
2023/05/21 12:44:40;;;;;;;2.30;1.90;;;;;;;;;;20955623;28;20283;-83
2023/05/21 12:54:44;;;;;;;3.38;2.10;;;;;;;;;;20846940;28;20666;-82
2023/05/21 13:04:47;;;;;;;4.28;2.40;;;;;;;;;;20900025;28;20236;-83
2023/05/21 13:14:52;;;;;;;3.55;1.92;;;;;;;;;;20869912;28;20213;-82
2023/05/21 13:24:54;;;;;;;3.10;2.22;;;;;;;;;;20852696;28;20597;-82
2023/05/21 13:34:55;;;;;;;2.90;2.30;;;;;;;;;;20883752;28;20300;-82
2023/05/21 13:44:58;;;;;;;3.08;2.30;;;;;;;;;;20866769;28;20240;-82
2023/05/21 13:55:00;;;;;;;3.20;2.25;;;;;;;;;;20898203;28;20215;-82
2023/05/21 14:05:01;;;;;;;3.08;2.00;;;;;;;;;;20897827;28;20845;-82
2023/05/21 14:15:03;;;;;;;4.03;2.60;;;;;;;;;;20899317;28;20212;-82
2023/05/21 14:25:10;;;;;;;2.92;2.15;;;;;;;;;;20926485;28;20765;-82
2023/05/21 14:35:12;;;;;;;2.38;1.80;;;;;;;;;;20892445;28;20218;-82
2023/05/21 14:45:14;;;;;;;2.78;2.25;;;;;;;;;;20898345;28;20238;-82
2023/05/21 14:55:17;;;;;;;3.13;2.15;;;;;;;;;;20923294;28;20218;-82
2023/05/21 15:05:19;;;;;;;2.55;1.95;;;;;;;;;;20919611;28;20294;-83
2023/05/21 15:15:21;;;;;;;2.10;1.65;;;;;;;;;;20920236;28;20227;-83
2023/05/21 15:25:23;;;;;;;2.63;1.92;;;;;;;;;;20905164;28;20230;-84
2023/05/21 15:35:24;;;;;;;2.10;1.70;;;;;;;;;;20876441;28;20213;-83
2023/05/21 15:45:26;;;;;;;2.75;1.70;;;;;;;;;;20884246;28;20737;-82
2023/05/21 15:55:32;;;;;;;2.60;1.70;;;28.50;99.90;;;;;;20937352;28;20224;-83
2023/05/21 16:05:33;;;;;;;2.30;1.30;;;;;;;;;;20882255;28;20228;-83
2023/05/21 16:15:39;;;;;;;1.92;1.63;;;;;;;;;;20857816;28;20220;-87
2023/05/21 16:25:45;;;;;;;2.20;1.60;;;;;;;;;;20896152;28;20829;-86
2023/05/21 16:35:47;;;;;;;3.13;1.75;;;;;;;;;;20882957;28;20253;-82
2023/05/21 16:45:51;;;;;;;1.90;1.52;;;;;;;;;;20879432;28;20227;-84
2023/05/21 16:55:53;;;;;;;2.17;1.83;;;;;;;;;;20888472;28;20195;-85
2023/05/21 17:05:54;;;;;;;4.50;1.75;;;;;;;;;;20923220;28;20676;-84
2023/05/21 17:15:58;;;;;;;2.30;1.73;;;;;;;;;;20922797;28;20196;-83
2023/05/21 17:26:00;;;;;;;2.20;1.65;;;;;;;;;;20943614;28;20257;-82
2023/05/21 17:36:03;;;;;;;3.80;1.38;;;;;;;;;;20914614;28;20262;-82
2023/05/21 17:46:04;;;;;;;2.13;1.58;;;;;;;;;;20876560;28;20203;-83
2023/05/21 17:56:07;;;;;;;2.42;1.52;;;;;;;;;;20882468;28;20695;-82
2023/05/21 18:06:09;;;;;;;2.17;1.52;;;;;;;;;;20896863;28;20298;-82
2023/05/21 18:16:11;;;;;;;2.60;1.73;;;;;;;;;;20831300;28;20229;-82
2023/05/21 18:26:12;;;;;;;2.67;1.38;;;;;;;;;;20850389;28;20228;-82
2023/05/21 18:36:16;;;;;;;2.08;1.45;;;;;;;;;;20872988;28;20283;-84
2023/05/21 18:46:24;;;;;;;2.28;1.63;;;;;;;;;;20865382;28;20715;-82
2023/05/21 18:56:27;;;;;;;2.67;1.80;;;;;;;;;;20903370;28;20220;-83
2023/05/21 19:06:28;;;;;;;2.35;1.70;;;;;;;;;;20920658;28;20302;-82
2023/05/21 19:16:30;;;;;;;2.20;1.52;;;;;;;;;;20874523;28;20699;-83
2023/05/21 19:26:32;;;;;;;4.95;1.90;;;;;;;;;;20895717;28;20242;-82
2023/05/21 19:36:38;;;;;;;2.75;1.83;;;;;;;;;;20927419;28;20228;-83
2023/05/21 19:46:40;;;;;;;2.33;1.52;;;;;;;;;;20891504;28;20783;-82
2023/05/21 19:56:42;;;;;;;2.40;1.80;;;;;;;;;;20913323;28;20589;-82
2023/05/21 20:06:43;;;;;;;2.70;1.70;;;;;;;;;;20888680;28;20249;-81
2023/05/21 20:16:45;;;;;;;5.32;2.28;;;;;;;;;;20908648;28;20216;-83
2023/05/21 20:26:47;;;;;;;3.35;2.03;;;;;;;;;;20877138;28;20241;-82
2023/05/21 20:36:50;;;;;;;2.97;2.17;;;;;;;;;;20954038;28;20276;-82
2023/05/21 20:46:52;;;;;;;3.05;1.98;;;25.10;99.90;;;;;;20898552;28;20787;-82
2023/05/21 20:56:57;;;;;;;3.15;2.38;;;;;;;;;;20870005;28;20217;-82
2023/05/21 21:07:00;;;;;;;5.63;2.40;;;;;;;;;;20852836;28;21775;-84
2023/05/21 21:17:02;;;;;;;6.00;2.95;;;;;;;;;;20801502;28;20282;-83
2023/05/21 21:27:04;;;;;;;3.72;2.33;;;;;;;;;;20786669;28;20278;-83
2023/05/21 21:37:06;;;;;;;3.30;2.13;;;;;;;;;;20804004;28;20266;-82
2023/05/21 21:47:07;;;;;;;2.88;2.00;;;;;;;;;;20835321;28;20291;-82
2023/05/21 21:57:09;;;;;;;2.63;2.20;;;;;;;;;;20870566;28;20269;-82
2023/05/21 22:07:16;;;;;;;3.33;2.60;;;;;;;;;;20888648;28;20239;-81
2023/05/21 22:17:20;;;;;;;2.67;2.10;;;;;;;;;;20891223;28;20703;-82
2023/05/21 22:27:22;;;;;;;3.58;2.33;;;;;;;;;;20902070;28;20544;-82
2023/05/21 22:37:24;;;;;;;4.00;2.42;;;;;;;;;;20919670;28;20567;-82
2023/05/21 22:47:26;;;;;;;3.17;2.30;;;;;;;;;;20901025;28;20274;-84
2023/05/21 22:57:28;;;;;;;3.50;2.40;;;;;;;;;;20867139;28;20219;-84
2023/05/21 23:07:30;;;;;;;3.92;2.65;;;;;;;;;;20869818;28;20644;-81
2023/05/21 23:17:31;;;;;;;2.80;2.28;;;;;;;;;;20917824;28;20793;-82
2023/05/21 23:27:33;;;;;;;3.65;2.33;;;;;;;;;;20864587;28;20283;-82
2023/05/21 23:37:35;;;;;;;4.93;2.60;;;;;;;;;;20897269;28;20210;-83
2023/05/21 23:47:36;;;;;;;3.65;2.50;;;;;;;;;;20874589;28;20229;-84
2023/05/21 23:57:38;;;;;;;3.90;2.60;;;;;;;;;;20893920;28;20226;-82
